Terminal Aerodrome Forecast
Issued by NWS

Current Version | Previous Version | Text Only | Print | Product List | Glossary On
Versions: 1 2 3 4 5 6 7 8 9 10 11 12 13 14 15 16 17 18 19 20 21 22 23 24 25 26 27 28 29 30
466
FTUS46 KOTX 281720
TAFSFF
TAF
KSFF 281720Z 2818/2918 VRB05KT P6SM FEW120 BKN250
     FM290300 VRB03KT P6SM FEW200
     FM290900 06003KT P6SM SCT130=

USA.gov is the U.S. government's official web portal to all federal, state and local government web resources and services.